createdAt,value
2018-07-05T00:00:57.322Z,91.90
2018-07-05T00:01:57.343Z,91.71
2018-07-05T00:02:57.357Z,92.00
2018-07-05T00:03:57.372Z,91.81
2018-07-05T00:04:57.389Z,91.71
2018-07-05T00:05:57.405Z,91.66
2018-07-05T00:06:57.426Z,92.00
2018-07-05T00:07:57.437Z,91.71
2018-07-05T00:08:57.463Z,92.10
2018-07-05T00:09:57.576Z,92.10
2018-07-05T00:10:57.489Z,91.86
2018-07-05T00:11:57.508Z,92.05
2018-07-05T00:12:57.523Z,91.96
2018-07-05T00:13:57.544Z,91.66
2018-07-05T00:14:57.557Z,91.42
2018-07-05T00:15:57.626Z,91.81
2018-07-05T00:16:57.588Z,92.29
2018-07-05T00:17:57.606Z,92.33
2018-07-05T00:18:57.626Z,92.33
2018-07-05T00:19:57.644Z,92.24
2018-07-05T00:20:57.656Z,92.10
2018-07-05T00:21:57.785Z,92.53
2018-07-05T00:22:57.691Z,92.63
2018-07-05T00:23:57.714Z,92.10
2018-07-05T00:24:57.729Z,91.90
2018-07-05T00:25:57.746Z,91.81
2018-07-05T00:26:57.757Z,92.29
2018-07-05T00:27:57.776Z,91.76
2018-07-05T00:28:57.790Z,91.81
2018-07-05T00:29:57.811Z,91.76
2018-07-05T00:30:57.828Z,91.57
2018-07-05T00:31:57.838Z,91.86
2018-07-05T00:32:57.858Z,92.33
2018-07-05T00:33:57.925Z,92.05
2018-07-05T00:34:57.890Z,92.53
2018-07-05T00:35:57.912Z,92.91
2018-07-05T00:36:57.925Z,92.82
2018-07-05T00:37:57.945Z,92.53
2018-07-05T00:38:57.963Z,92.63
2018-07-05T00:39:58.030Z,92.53
2018-07-05T00:40:57.989Z,92.43
2018-07-05T00:41:58.013Z,92.72
2018-07-05T00:42:58.026Z,92.43
2018-07-05T00:43:58.045Z,92.33
2018-07-05T00:44:58.060Z,92.33
2018-07-05T00:45:58.129Z,92.14
2018-07-05T00:46:58.097Z,93.10
2018-07-05T00:47:58.107Z,92.91
2018-07-05T00:48:58.194Z,92.82
2018-07-05T00:49:58.143Z,93.10
2018-07-05T00:50:58.160Z,92.63
2018-07-05T00:51:58.180Z,92.72
2018-07-05T00:52:58.194Z,93.01
2018-07-05T00:53:58.211Z,93.01
2018-07-05T00:54:58.225Z,92.91
2018-07-05T00:55:58.244Z,93.68
2018-07-05T00:56:58.264Z,93.59
2018-07-05T00:57:58.277Z,93.77
2018-07-05T00:58:58.298Z,93.30
2018-07-05T00:59:58.311Z,92.82
2018-07-05T01:00:58.329Z,93.30
2018-07-05T01:01:58.343Z,92.72
2018-07-05T01:02:58.366Z,93.01
2018-07-05T01:03:58.381Z,93.68
2018-07-05T01:04:58.392Z,93.68
2018-07-05T01:05:58.414Z,93.39
2018-07-05T01:06:58.430Z,93.49
2018-07-05T01:07:58.443Z,93.68
2018-07-05T01:08:58.462Z,93.01
2018-07-05T01:09:58.481Z,93.30
2018-07-05T01:10:58.497Z,92.63
2018-07-05T01:11:58.514Z,92.82
2018-07-05T01:12:58.528Z,93.01
2018-07-05T01:13:58.546Z,92.91
2018-07-05T01:14:58.564Z,92.24
2018-07-05T01:15:58.627Z,92.24
2018-07-05T01:16:58.592Z,92.24
2018-07-05T01:17:58.609Z,92.14
2018-07-05T01:18:58.630Z,92.53
2018-07-05T01:19:58.647Z,92.82
2018-07-05T01:20:58.659Z,93.20
2018-07-05T01:21:58.681Z,93.01
2018-07-05T01:22:58.696Z,92.82
2018-07-05T01:23:58.712Z,92.82
2018-07-05T01:24:58.729Z,93.30
2018-07-05T01:25:58.746Z,92.82
2018-07-05T01:26:58.762Z,92.63
2018-07-05T01:27:58.773Z,92.63
2018-07-05T01:28:58.791Z,92.82
2018-07-05T01:29:58.808Z,92.72
2018-07-05T01:30:58.824Z,92.63
2018-07-05T01:31:58.846Z,92.91
2018-07-05T01:32:58.862Z,92.91
2018-07-05T01:33:58.879Z,92.63
2018-07-05T01:34:58.896Z,92.82
2018-07-05T01:35:58.911Z,93.20
2018-07-05T01:36:58.928Z,93.10
2018-07-05T01:37:58.943Z,93.30
2018-07-05T01:38:58.961Z,93.20
2018-07-05T01:39:59.027Z,93.20
2018-07-05T01:40:58.996Z,92.72
2018-07-05T01:41:59.007Z,93.49
2018-07-05T01:42:59.029Z,92.82
2018-07-05T01:43:59.045Z,93.49
2018-07-05T01:44:59.062Z,92.53
2018-07-05T01:45:59.152Z,93.59
2018-07-05T01:46:59.091Z,93.39
2018-07-05T01:47:59.111Z,92.63
2018-07-05T01:48:59.127Z,93.39
2018-07-05T01:49:59.140Z,92.91
2018-07-05T01:50:59.163Z,92.91
2018-07-05T01:51:59.173Z,92.82
2018-07-05T01:52:59.194Z,92.91
2018-07-05T01:53:59.206Z,93.68
2018-07-05T01:54:59.223Z,92.91
2018-07-05T01:55:59.241Z,93.10
2018-07-05T01:56:59.261Z,92.53
2018-07-05T01:57:59.324Z,92.82
2018-07-05T01:58:59.294Z,92.82
2018-07-05T01:59:59.310Z,93.01
2018-07-05T02:00:59.324Z,93.01
2018-07-05T02:01:59.339Z,93.20
2018-07-05T02:02:59.364Z,93.39
2018-07-05T02:03:59.428Z,93.87
2018-07-05T02:04:59.391Z,93.87
2018-07-05T02:05:59.406Z,93.87
2018-07-05T02:06:59.423Z,93.68
2018-07-05T02:07:59.440Z,93.97
2018-07-05T02:08:59.458Z,93.30
2018-07-05T02:09:59.485Z,93.97
2018-07-05T02:10:59.578Z,93.68
2018-07-05T02:11:59.510Z,93.68
2018-07-05T02:12:59.523Z,93.87
2018-07-05T02:13:59.540Z,93.49
2018-07-05T02:14:59.556Z,93.77
2018-07-05T02:15:59.586Z,93.87
2018-07-05T02:16:59.629Z,93.77
2018-07-05T02:17:59.638Z,93.54
2018-07-05T02:18:59.672Z,93.82
2018-07-05T02:19:59.641Z,93.82
2018-07-05T02:20:59.659Z,93.73
2018-07-05T02:21:59.672Z,93.82
2018-07-05T02:22:59.704Z,93.92
2018-07-05T02:23:59.708Z,93.68
2018-07-05T02:24:59.719Z,93.87
2018-07-05T02:25:59.737Z,93.87
2018-07-05T02:26:59.758Z,93.44
2018-07-05T02:27:59.775Z,93.73
2018-07-05T02:28:59.811Z,94.49
2018-07-05T02:29:59.803Z,94.21
2018-07-05T02:30:59.833Z,93.92
2018-07-05T02:31:59.840Z,94.59
2018-07-05T02:32:59.851Z,94.59
2018-07-05T02:33:59.936Z,94.45
2018-07-05T02:34:59.959Z,94.69
2018-07-05T02:35:59.907Z,94.40
2018-07-05T02:36:59.922Z,94.59
2018-07-05T02:37:59.939Z,94.69
2018-07-05T02:38:59.955Z,94.59
2018-07-05T02:39:59.970Z,94.69
2018-07-05T02:40:59.994Z,94.59
2018-07-05T02:42:00.008Z,94.59
2018-07-05T02:43:00.022Z,94.40
2018-07-05T02:44:00.042Z,94.02
2018-07-05T02:45:00.053Z,94.35
2018-07-05T02:46:00.068Z,94.40
2018-07-05T02:47:00.088Z,94.49
2018-07-05T02:48:00.100Z,94.59
2018-07-05T02:49:00.133Z,94.69
2018-07-05T02:50:00.137Z,94.98
2018-07-05T02:51:00.148Z,94.74
2018-07-05T02:52:00.214Z,94.59
2018-07-05T02:53:00.188Z,94.49
2018-07-05T02:54:00.201Z,94.69
2018-07-05T02:55:00.213Z,94.79
2018-07-05T02:56:00.230Z,94.69
2018-07-05T02:57:00.249Z,94.88
2018-07-05T02:58:00.267Z,94.69
2018-07-05T02:59:00.284Z,94.79
2018-07-05T03:00:00.294Z,94.74
2018-07-05T03:01:00.320Z,95.12
2018-07-05T03:02:00.332Z,94.35
2018-07-05T03:03:00.349Z,94.64
2018-07-05T03:04:00.361Z,94.64
2018-07-05T03:05:00.380Z,94.74
2018-07-05T03:06:00.398Z,94.45
2018-07-05T03:07:00.410Z,94.26
2018-07-05T03:08:00.431Z,94.45
2018-07-05T03:09:00.447Z,94.64
2018-07-05T03:10:00.564Z,94.07
2018-07-05T03:11:00.476Z,94.26
2018-07-05T03:12:00.545Z,94.16
2018-07-05T03:13:00.509Z,94.16
2018-07-05T03:14:00.536Z,94.16
2018-07-05T03:15:00.542Z,94.16
2018-07-05T03:16:00.609Z,94.26
2018-07-05T03:17:00.577Z,94.45
2018-07-05T03:18:00.682Z,94.93
2018-07-05T03:19:00.612Z,94.54
2018-07-05T03:20:00.640Z,94.49
2018-07-05T03:21:00.653Z,95.03
2018-07-05T03:22:00.666Z,95.21
2018-07-05T03:23:00.680Z,95.12
2018-07-05T03:24:00.779Z,95.03
2018-07-05T03:25:00.711Z,95.12
2018-07-05T03:26:00.725Z,94.45
2018-07-05T03:27:00.741Z,94.93
2018-07-05T03:28:00.761Z,94.54
2018-07-05T03:29:00.786Z,94.54
2018-07-05T03:30:00.867Z,94.35
2018-07-05T03:31:00.809Z,93.97
2018-07-05T03:32:00.823Z,94.35
2018-07-05T03:33:00.840Z,94.26
2018-07-05T03:34:00.909Z,94.26
2018-07-05T03:35:00.872Z,94.26
2018-07-05T03:36:00.913Z,94.35
2018-07-05T03:37:00.911Z,94.35
2018-07-05T03:38:00.924Z,94.35
2018-07-05T03:39:00.940Z,94.45
2018-07-05T03:40:01.012Z,94.54
2018-07-05T03:41:00.987Z,94.64
2018-07-05T03:42:00.989Z,94.26
2018-07-05T03:43:01.011Z,94.54
2018-07-05T03:44:01.027Z,94.93
2018-07-05T03:45:01.039Z,94.40
2018-07-05T03:46:01.113Z,94.35
2018-07-05T03:47:01.073Z,94.07
2018-07-05T03:48:01.096Z,94.45
2018-07-05T03:49:01.111Z,94.74
2018-07-05T03:50:01.129Z,94.35
2018-07-05T03:51:01.141Z,94.26
2018-07-05T03:52:01.212Z,94.35
2018-07-05T03:53:01.185Z,94.07
2018-07-05T03:54:01.191Z,94.16
2018-07-05T03:55:01.238Z,94.26
2018-07-05T03:56:01.223Z,94.45
2018-07-05T03:57:01.241Z,93.87
2018-07-05T03:58:01.312Z,93.82
2018-07-05T03:59:01.276Z,94.01
2018-07-05T04:00:01.294Z,94.11
2018-07-05T04:01:01.387Z,93.92
2018-07-05T04:02:01.324Z,94.21
2018-07-05T04:03:01.347Z,93.73
2018-07-05T04:04:01.415Z,93.92
2018-07-05T04:05:01.373Z,93.73
2018-07-05T04:06:01.397Z,94.11
2018-07-05T04:07:01.414Z,94.01
2018-07-05T04:08:01.429Z,93.92
2018-07-05T04:09:01.441Z,94.01
2018-07-05T04:10:01.523Z,93.92
2018-07-05T04:11:01.479Z,94.11
2018-07-05T04:12:01.500Z,93.82
2018-07-05T04:13:01.512Z,93.92
2018-07-05T04:14:01.527Z,93.73
2018-07-05T04:15:01.548Z,94.01
2018-07-05T04:16:01.560Z,92.86
2018-07-05T04:17:01.575Z,93.63
2018-07-05T04:18:01.598Z,93.54
2018-07-05T04:19:01.610Z,92.96
2018-07-05T04:20:01.694Z,93.05
2018-07-05T04:21:01.648Z,93.25
2018-07-05T04:22:01.715Z,93.15
2018-07-05T04:23:01.680Z,93.05
2018-07-05T04:24:01.718Z,92.81
2018-07-05T04:25:01.720Z,92.86
2018-07-05T04:26:01.751Z,92.96
2018-07-05T04:27:01.747Z,93.15
2018-07-05T04:28:01.763Z,92.86
2018-07-05T04:29:01.783Z,93.15
2018-07-05T04:30:01.795Z,93.25
2018-07-05T04:31:01.819Z,93.10
2018-07-05T04:32:01.834Z,92.57
2018-07-05T04:33:01.846Z,92.57
2018-07-05T04:34:01.869Z,92.91
2018-07-05T04:35:01.886Z,92.62
2018-07-05T04:36:01.898Z,92.72
2018-07-05T04:37:01.920Z,93.05
2018-07-05T04:38:01.933Z,92.72
2018-07-05T04:39:01.949Z,93.01
2018-07-05T04:40:01.973Z,92.86
2018-07-05T04:41:01.989Z,92.62
2018-07-05T04:42:02.008Z,92.86
2018-07-05T04:43:02.023Z,92.62
2018-07-05T04:44:02.038Z,93.01
2018-07-05T04:45:02.057Z,92.67
2018-07-05T04:46:02.122Z,92.77
2018-07-05T04:47:02.086Z,92.62
2018-07-05T04:48:02.108Z,93.10
2018-07-05T04:49:02.124Z,93.10
2018-07-05T04:50:02.136Z,92.72
2018-07-05T04:51:02.157Z,93.29
2018-07-05T04:52:02.175Z,93.39
2018-07-05T04:53:02.192Z,92.72
2018-07-05T04:54:02.210Z,92.91
2018-07-05T04:55:02.227Z,92.91
2018-07-05T04:56:02.240Z,92.72
2018-07-05T04:57:02.286Z,92.91
2018-07-05T04:58:02.274Z,92.91
2018-07-05T04:59:02.297Z,92.91
2018-07-05T05:01:02.334Z,92.62
2018-07-05T05:02:02.342Z,92.91
2018-07-05T05:03:02.425Z,92.81
2018-07-05T05:04:02.424Z,92.72
2018-07-05T05:05:02.395Z,92.57
2018-07-05T05:06:02.409Z,93.29
2018-07-05T05:07:02.432Z,93.29
2018-07-05T05:08:02.443Z,93.15
2018-07-05T05:09:02.460Z,92.62
2018-07-05T05:10:02.478Z,92.81
2018-07-05T05:11:02.499Z,93.39
2018-07-05T05:12:02.518Z,93.39
2018-07-05T05:13:02.532Z,93.29
2018-07-05T05:14:02.550Z,93.19
2018-07-05T05:15:02.601Z,93.10
2018-07-05T05:16:02.580Z,93.19
2018-07-05T05:17:02.600Z,92.81
2018-07-05T05:18:02.614Z,92.91
2018-07-05T05:19:02.643Z,92.91
2018-07-05T05:20:02.651Z,92.81
2018-07-05T05:21:02.665Z,93.29
2018-07-05T05:22:02.686Z,93.10
2018-07-05T05:23:02.703Z,93.10
2018-07-05T05:24:02.716Z,93.29
2018-07-05T05:25:02.738Z,92.52
2018-07-05T05:26:02.755Z,92.72
2018-07-05T05:27:02.767Z,93.58
2018-07-05T05:28:02.834Z,92.72
2018-07-05T05:29:02.805Z,93.77
2018-07-05T05:30:02.878Z,93.01
2018-07-05T05:31:02.838Z,93.29
2018-07-05T05:32:02.857Z,93.10
2018-07-05T05:33:02.886Z,93.29
2018-07-05T05:34:02.886Z,92.52
2018-07-05T05:35:02.907Z,93.19
2018-07-05T05:36:02.921Z,93.10
2018-07-05T05:37:02.938Z,93.10
2018-07-05T05:38:02.959Z,92.91
2018-07-05T05:39:03.075Z,93.39
2018-07-05T05:40:02.994Z,93.10
2018-07-05T05:41:03.006Z,93.10
2018-07-05T05:42:03.029Z,92.81
2018-07-05T05:43:03.133Z,92.81
2018-07-05T05:44:03.061Z,92.43
2018-07-05T05:45:03.082Z,92.91
2018-07-05T05:46:03.095Z,92.81
2018-07-05T05:47:03.108Z,92.91
2018-07-05T05:48:03.146Z,92.91
2018-07-05T05:49:03.141Z,93.10
2018-07-05T05:50:03.160Z,92.91
2018-07-05T05:51:03.227Z,92.91
2018-07-05T05:52:03.233Z,93.01
2018-07-05T05:53:03.215Z,93.01
2018-07-05T05:54:03.228Z,93.10
2018-07-05T05:55:03.251Z,93.01
2018-07-05T05:56:03.267Z,93.10
2018-07-05T05:57:03.284Z,92.72
2018-07-05T05:58:03.302Z,93.10
2018-07-05T05:59:03.318Z,92.29
2018-07-05T06:00:03.334Z,92.43
2018-07-05T06:01:03.348Z,92.47
2018-07-05T06:02:03.368Z,92.62
2018-07-05T06:03:03.433Z,92.43
2018-07-05T06:04:03.402Z,92.57
2018-07-05T06:05:03.475Z,92.57
2018-07-05T06:06:03.437Z,91.61
2018-07-05T06:07:03.450Z,92.38
2018-07-05T06:08:03.538Z,92.09
2018-07-05T06:09:03.535Z,92.38
2018-07-05T06:10:03.506Z,92.29
2018-07-05T06:11:03.527Z,92.38
2018-07-05T06:12:03.541Z,92.57
2018-07-05T06:13:03.561Z,91.71
2018-07-05T06:14:03.571Z,92.57
2018-07-05T06:15:03.643Z,91.71
2018-07-05T06:16:03.604Z,91.71
2018-07-05T06:17:03.631Z,91.90
2018-07-05T06:18:03.730Z,91.90
2018-07-05T06:19:03.681Z,91.90
2018-07-05T06:20:03.704Z,91.90
2018-07-05T06:21:03.742Z,91.99
2018-07-05T06:22:03.712Z,91.90
2018-07-05T06:23:03.727Z,91.90
2018-07-05T06:24:03.782Z,91.71
2018-07-05T06:25:03.760Z,92.29
2018-07-05T06:26:03.782Z,92.09
2018-07-05T06:27:03.793Z,91.71
2018-07-05T06:28:03.809Z,91.90
2018-07-05T06:29:03.826Z,91.71
2018-07-05T06:30:03.849Z,91.52
2018-07-05T06:31:03.866Z,91.61
2018-07-05T06:32:03.883Z,91.80
2018-07-05T06:33:03.951Z,91.61
2018-07-05T06:34:03.915Z,91.32
2018-07-05T06:35:03.935Z,91.17
2018-07-05T06:36:03.955Z,90.89
2018-07-05T06:37:03.966Z,90.79
2018-07-05T06:38:03.986Z,90.79
2018-07-05T06:39:04.056Z,90.79
2018-07-05T06:40:04.020Z,90.89
2018-07-05T06:41:04.041Z,90.31
2018-07-05T06:42:04.057Z,90.31
2018-07-05T06:43:04.093Z,89.92
2018-07-05T06:44:04.090Z,90.45
2018-07-05T06:45:04.104Z,90.21
2018-07-05T06:46:04.128Z,90.26
2018-07-05T06:47:04.137Z,90.59
2018-07-05T06:48:04.159Z,90.06
2018-07-05T06:49:04.202Z,90.55
2018-07-05T06:50:04.194Z,90.26
2018-07-05T06:51:04.266Z,89.97
2018-07-05T06:52:04.223Z,89.87
2018-07-05T06:53:04.282Z,90.50
2018-07-05T06:54:04.259Z,90.55
2018-07-05T06:55:04.276Z,90.01
2018-07-05T06:56:04.292Z,89.58
2018-07-05T06:57:04.313Z,89.82
2018-07-05T06:58:04.328Z,89.53
2018-07-05T06:59:04.364Z,89.82
2018-07-05T07:00:04.368Z,89.63
2018-07-05T07:01:04.381Z,88.57
2018-07-05T07:02:04.411Z,89.05
2018-07-05T07:03:04.418Z,89.43
2018-07-05T07:04:04.434Z,89.82
2018-07-05T07:05:04.456Z,89.15
2018-07-05T07:06:04.468Z,88.76
2018-07-05T07:07:04.487Z,88.71
2018-07-05T07:08:04.578Z,88.04
2018-07-05T07:09:04.579Z,87.50
2018-07-05T07:10:04.547Z,87.02
2018-07-05T07:11:04.560Z,87.12
2018-07-05T07:12:04.604Z,86.25
2018-07-05T07:13:04.598Z,87.12
2018-07-05T07:14:04.673Z,87.30
2018-07-05T07:15:04.684Z,85.96
2018-07-05T07:16:04.769Z,85.96
2018-07-05T07:17:04.669Z,86.49
2018-07-05T07:18:04.688Z,86.98
2018-07-05T07:19:04.702Z,87.26
2018-07-05T07:20:04.723Z,87.26
2018-07-05T07:21:04.741Z,86.93
2018-07-05T07:22:04.762Z,87.84
2018-07-05T07:23:04.778Z,87.46
2018-07-05T07:24:04.795Z,86.78
2018-07-05T07:25:04.811Z,86.63
2018-07-05T07:26:04.878Z,86.05
2018-07-05T07:27:04.857Z,85.47
2018-07-05T07:28:04.867Z,85.03
2018-07-05T07:29:04.884Z,84.80
2018-07-05T07:30:04.907Z,84.27
2018-07-05T07:31:04.920Z,85.23
2018-07-05T07:32:04.989Z,84.69
2018-07-05T07:33:05.073Z,84.16
2018-07-05T07:34:04.975Z,82.90
2018-07-05T07:35:04.992Z,83.48
2018-07-05T07:36:05.008Z,83.39
2018-07-05T07:37:05.032Z,83.29
2018-07-05T07:38:05.048Z,83.73
2018-07-05T07:39:05.111Z,83.92
2018-07-05T07:40:05.086Z,83.58
2018-07-05T07:41:05.099Z,83.48
2018-07-05T07:42:05.117Z,83.19
2018-07-05T07:43:05.141Z,82.81
2018-07-05T07:44:05.204Z,82.86
2018-07-05T07:45:05.175Z,83.09
2018-07-05T07:46:05.194Z,82.61
2018-07-05T07:47:05.216Z,83.42
2018-07-05T07:48:05.229Z,82.17
2018-07-05T07:49:05.258Z,82.07
2018-07-05T07:50:05.326Z,81.78
2018-07-05T07:51:05.294Z,81.92
2018-07-05T07:52:05.303Z,81.44
2018-07-05T07:53:05.327Z,81.67
2018-07-05T07:54:05.342Z,79.64
2018-07-05T07:55:05.361Z,79.74
2018-07-05T07:56:05.389Z,79.83
2018-07-05T07:57:05.404Z,80.46
2018-07-05T07:58:05.418Z,80.20
2018-07-05T07:59:05.442Z,78.75
2018-07-05T08:00:05.461Z,78.94
2018-07-05T08:01:05.479Z,79.10
2018-07-05T08:02:05.556Z,80.07
2018-07-05T08:03:05.519Z,79.78
2018-07-05T08:04:05.540Z,79.68
2018-07-05T08:05:05.554Z,79.72
2018-07-05T08:06:05.579Z,78.27
2018-07-05T08:07:05.598Z,78.56
2018-07-05T08:08:05.665Z,78.56
2018-07-05T08:09:05.633Z,77.98
2018-07-05T08:10:05.655Z,77.34
2018-07-05T08:11:05.673Z,77.92
2018-07-05T08:12:05.693Z,76.76
2018-07-05T08:13:05.711Z,76.60
2018-07-05T08:14:05.732Z,76.60
2018-07-05T08:15:05.763Z,76.70
2018-07-05T08:16:05.787Z,77.14
2018-07-05T08:17:05.793Z,77.50
2018-07-05T08:18:05.811Z,77.78
2018-07-05T08:19:05.831Z,78.69
2018-07-05T08:20:05.864Z,77.44
2018-07-05T08:21:05.961Z,77.82
2018-07-05T08:22:05.896Z,77.24
2018-07-05T08:23:05.918Z,77.59
2018-07-05T08:24:05.932Z,77.69
2018-07-05T08:25:05.957Z,77.59
2018-07-05T08:26:05.979Z,77.05
2018-07-05T08:27:06.064Z,76.66
2018-07-05T08:28:06.019Z,76.60
2018-07-05T08:29:06.035Z,75.79
2018-07-05T08:30:06.055Z,76.12
2018-07-05T08:31:06.076Z,76.08
2018-07-05T08:32:06.249Z,76.95
2018-07-05T08:33:06.141Z,76.70
2018-07-05T08:34:06.133Z,76.41
2018-07-05T08:35:06.157Z,75.48
2018-07-05T08:36:06.184Z,73.96
2018-07-05T08:37:06.197Z,72.93
2018-07-05T08:38:06.276Z,72.41
2018-07-05T08:39:06.237Z,74.26
2018-07-05T08:40:06.259Z,74.74
2018-07-05T08:41:06.283Z,74.35
2018-07-05T08:42:06.304Z,72.71
2018-07-05T08:43:06.325Z,74.49
2018-07-05T08:44:06.340Z,77.03
2018-07-05T08:45:06.363Z,78.42
2018-07-05T08:46:06.384Z,77.73
2018-07-05T08:47:06.409Z,77.11
2018-07-05T08:48:06.424Z,78.23
2018-07-05T08:49:06.446Z,78.42
2018-07-05T08:50:06.472Z,77.01
2018-07-05T08:51:06.489Z,77.26
2018-07-05T08:52:06.512Z,77.17
2018-07-05T08:53:06.527Z,76.14
2018-07-05T08:54:06.552Z,75.85
2018-07-05T08:55:06.571Z,76.78
2018-07-05T08:56:06.589Z,76.74
2018-07-05T08:57:06.611Z,76.84
2018-07-05T08:58:06.634Z,78.44
2018-07-05T08:59:06.654Z,78.96
2018-07-05T09:00:06.673Z,77.36
2018-07-05T09:01:06.696Z,75.31
2018-07-05T09:02:06.765Z,74.15
2018-07-05T09:03:06.734Z,73.79
2018-07-05T09:04:06.753Z,74.53
2018-07-05T09:05:06.773Z,73.02
2018-07-05T09:06:06.794Z,72.24
2018-07-05T09:07:06.810Z,73.21
2018-07-05T09:08:06.880Z,72.73
2018-07-05T09:09:06.855Z,74.01
2018-07-05T09:10:06.876Z,75.27
2018-07-05T09:11:06.895Z,75.37
2018-07-05T09:12:06.912Z,75.85
2018-07-05T09:13:06.936Z,74.63
2018-07-05T09:14:07.021Z,73.02
2018-07-05T09:15:06.979Z,72.18
2018-07-05T09:16:07.004Z,70.70
2018-07-05T09:17:07.017Z,69.86
2018-07-05T09:18:07.170Z,68.93
2018-07-05T09:19:07.055Z,69.06
2018-07-05T09:20:07.078Z,65.89
2018-07-05T09:21:07.100Z,64.33
2018-07-05T09:22:07.116Z,63.78
2018-07-05T09:23:07.165Z,63.42
2018-07-05T09:24:07.164Z,63.55
2018-07-05T09:25:07.185Z,62.41
2018-07-05T09:26:07.255Z,63.10
2018-07-05T09:27:07.224Z,61.60
2018-07-05T09:28:07.241Z,61.54
2018-07-05T09:29:07.357Z,61.35
2018-07-05T09:30:07.290Z,60.93
2018-07-05T09:31:07.382Z,61.71
2018-07-05T09:32:07.336Z,62.07
2018-07-05T09:33:07.355Z,61.02
2018-07-05T09:34:07.375Z,60.54
2018-07-05T09:35:07.415Z,60.02
2018-07-05T09:36:07.416Z,59.33
2018-07-05T09:37:07.525Z,59.31
2018-07-05T09:38:07.514Z,60.77
2018-07-05T09:39:07.533Z,60.77
2018-07-05T09:40:07.502Z,60.96
2018-07-05T09:41:07.554Z,61.22
2018-07-05T09:49:43.314Z,57.61
2018-07-05T09:50:43.486Z,57.90
2018-07-05T09:51:43.319Z,58.65
2018-07-05T09:52:43.372Z,61.55
2018-07-05T09:53:43.348Z,63.56
2018-07-05T09:54:43.374Z,64.40
2018-07-05T09:56:43.423Z,66.50
2018-07-05T09:57:43.645Z,67.92
2018-07-05T09:58:43.465Z,68.44
2018-07-05T09:59:43.477Z,68.37
2018-07-05T10:00:43.549Z,67.98
2018-07-05T10:01:43.524Z,68.33
2018-07-05T10:02:43.542Z,68.73
2018-07-05T10:03:43.662Z,68.91
2018-07-05T10:04:43.589Z,69.85
2018-07-05T10:05:43.611Z,70.53
2018-07-05T10:06:43.627Z,71.59
2018-07-05T10:07:43.652Z,71.30
2018-07-05T10:08:43.669Z,70.21
2018-07-05T10:09:43.693Z,68.50
2018-07-05T10:10:43.773Z,69.08
2018-07-05T10:11:43.735Z,68.54
2018-07-05T10:12:43.752Z,68.34
2018-07-05T10:13:43.867Z,66.82
2018-07-05T10:14:43.850Z,65.95
2018-07-05T10:15:43.819Z,64.36
2018-07-05T10:16:43.900Z,63.36
2018-07-05T10:17:43.859Z,62.98
2018-07-05T10:18:43.875Z,63.53
2018-07-05T10:19:44.132Z,66.24
2018-07-05T10:20:43.922Z,65.34
2018-07-05T10:21:43.943Z,64.17
2018-07-05T10:22:44.052Z,65.40
2018-07-05T10:23:43.986Z,65.40
2018-07-05T10:24:44.055Z,66.82
2018-07-05T10:25:44.026Z,67.88
2018-07-05T10:26:44.106Z,67.02
2018-07-05T10:27:44.163Z,67.11
2018-07-05T10:28:44.088Z,67.40
2018-07-05T10:29:44.106Z,67.14
2018-07-05T10:30:44.176Z,66.56
2018-07-05T10:31:44.145Z,65.34
2018-07-05T10:32:44.165Z,64.24
2018-07-05T10:33:44.185Z,64.53
2018-07-05T10:34:44.205Z,64.62
2018-07-05T10:35:44.232Z,65.11
2018-07-05T10:36:44.298Z,66.66
2018-07-05T10:37:44.271Z,65.11
2018-07-05T10:38:44.293Z,65.11
2018-07-05T10:39:44.320Z,64.89
2018-07-05T10:40:44.329Z,64.82
2018-07-05T10:41:44.350Z,65.20
2018-07-05T10:42:44.372Z,64.98
2018-07-05T10:43:44.394Z,65.01
2018-07-05T10:44:44.416Z,65.37
2018-07-05T10:45:44.434Z,64.24
2018-07-05T10:46:44.457Z,64.17
2018-07-05T10:47:44.478Z,63.72
2018-07-05T10:48:44.549Z,62.36
2018-07-05T10:49:44.518Z,61.71
2018-07-05T10:50:44.536Z,60.97
2018-07-05T10:51:44.555Z,60.38
2018-07-05T10:52:44.581Z,60.45
2018-07-05T10:53:44.596Z,60.97
2018-07-05T10:54:44.618Z,60.68
2018-07-05T10:55:44.643Z,61.68
2018-07-05T10:56:44.664Z,62.46
2018-07-05T10:57:44.685Z,62.75
2018-07-05T10:58:44.704Z,62.59
2018-07-05T10:59:44.725Z,62.36
2018-07-05T11:00:44.743Z,60.77
2018-07-05T11:01:44.766Z,58.92
2018-07-05T11:02:44.790Z,57.49
2018-07-05T11:03:44.811Z,57.61
2018-07-05T11:04:44.830Z,55.41
2018-07-05T11:05:44.848Z,57.21
2018-07-05T11:06:44.873Z,60.06
2018-07-05T11:07:44.894Z,61.42
2018-07-05T11:08:44.912Z,61.32
2018-07-05T11:09:44.943Z,62.19
2018-07-05T11:10:44.960Z,61.42
2018-07-05T11:11:45.027Z,60.97
2018-07-05T11:12:44.996Z,60.91
2018-07-05T11:13:45.019Z,62.95
2018-07-05T11:14:45.123Z,62.04
2018-07-05T11:15:45.065Z,61.81
2018-07-05T11:16:45.212Z,58.69
2018-07-05T11:17:45.104Z,57.97
2018-07-05T11:18:45.124Z,56.54
2018-07-05T11:19:45.153Z,54.62
2018-07-05T11:20:45.174Z,55.83
2018-07-05T11:21:45.188Z,55.61
2018-07-05T11:22:45.299Z,57.33
2018-07-05T11:23:45.237Z,57.67
2018-07-05T11:24:45.258Z,59.77
2018-07-05T11:25:45.276Z,60.55
2018-07-05T11:26:45.301Z,60.00
2018-07-05T11:27:45.319Z,58.57
2018-07-05T11:28:45.404Z,58.54
2018-07-05T11:29:45.386Z,59.12
2018-07-05T11:30:45.390Z,59.48
2018-07-05T11:31:45.405Z,61.29
2018-07-05T11:32:45.429Z,59.97
2018-07-05T11:33:45.454Z,60.09
2018-07-05T11:34:45.519Z,58.11
2018-07-05T11:35:45.491Z,57.72
2018-07-05T11:36:45.534Z,57.65
2018-07-05T11:37:45.537Z,55.57
2018-07-05T11:38:45.555Z,55.08
2018-07-05T11:39:45.579Z,55.27
2018-07-05T11:40:45.800Z,54.30
2018-07-05T11:41:45.622Z,55.32
2018-07-05T11:42:45.700Z,55.90
2018-07-05T11:43:45.670Z,56.64
2018-07-05T11:44:45.691Z,54.36
2018-07-05T11:45:45.712Z,53.41
2018-07-05T11:46:45.793Z,52.77
2018-07-05T11:47:45.783Z,54.80
2018-07-05T11:48:45.780Z,55.49
2018-07-05T11:49:45.802Z,55.80
2018-07-05T11:50:45.819Z,56.05
2018-07-05T11:51:45.841Z,55.51
2018-07-05T11:52:45.869Z,57.56
2018-07-05T11:53:45.884Z,57.98
2018-07-05T11:54:45.968Z,57.89
2018-07-05T11:55:45.930Z,58.83
2018-07-05T11:56:45.958Z,59.58
2018-07-05T11:57:45.979Z,60.77
2018-07-05T11:58:46.099Z,60.28
2018-07-05T11:59:46.024Z,59.58
2018-07-05T12:00:46.040Z,59.19
2018-07-05T12:01:46.066Z,59.61
2018-07-05T12:02:46.112Z,60.16
2018-07-05T12:03:46.111Z,59.83
2018-07-05T12:04:46.128Z,57.97
2018-07-05T12:05:46.148Z,57.29
2018-07-05T12:06:46.176Z,55.86
2018-07-05T12:07:46.200Z,55.05
2018-07-05T12:08:46.236Z,56.49
2018-07-05T12:09:46.236Z,57.92
2018-07-05T12:10:46.311Z,58.31
2018-07-05T12:11:46.280Z,57.29
2018-07-05T12:12:46.306Z,56.41
2018-07-05T12:13:46.329Z,55.08
2018-07-05T12:14:46.347Z,55.10
2018-07-05T12:15:46.369Z,57.04
2018-07-05T12:16:46.391Z,56.77
2018-07-05T12:17:46.416Z,56.10
2018-07-05T12:18:46.434Z,55.51
2018-07-05T12:19:46.461Z,54.74
2018-07-05T12:20:46.484Z,55.93
2018-07-05T12:21:46.506Z,55.05
2018-07-05T12:22:46.522Z,55.11
2018-07-05T12:23:46.567Z,52.73
2018-07-05T12:24:46.571Z,52.90
2018-07-05T12:25:46.589Z,48.24
2018-07-05T12:26:46.614Z,50.16
2018-07-05T12:27:46.634Z,49.58
2018-07-05T12:28:46.709Z,49.54
2018-07-05T12:29:46.678Z,50.60
2018-07-05T12:30:46.702Z,50.99
2018-07-05T12:31:46.729Z,53.67
2018-07-05T12:32:46.752Z,54.80
2018-07-05T12:33:46.776Z,56.34
2018-07-05T12:34:46.854Z,56.82
2018-07-05T12:35:46.820Z,55.19
2018-07-05T12:36:46.838Z,54.96
2018-07-05T12:37:46.861Z,54.05
2018-07-05T12:38:46.889Z,54.93
2018-07-05T12:39:46.911Z,54.13
2018-07-05T12:40:46.986Z,54.83
2018-07-05T12:41:46.957Z,53.81
2018-07-05T12:42:46.973Z,52.67
2018-07-05T12:43:47.002Z,51.63
2018-07-05T12:44:47.026Z,49.71
2018-07-05T12:45:47.050Z,49.34
2018-07-05T12:46:47.115Z,50.09
2018-07-05T12:47:47.092Z,50.56
2018-07-05T12:48:47.110Z,52.97
2018-07-05T12:49:47.136Z,52.60
2018-07-05T12:50:47.160Z,51.73
2018-07-05T12:51:47.248Z,51.53
2018-07-05T12:52:47.207Z,50.56
2018-07-05T12:53:47.225Z,50.16
2018-07-05T12:54:47.249Z,49.90
2018-07-05T12:55:47.275Z,51.94
2018-07-05T12:56:47.295Z,54.52
2018-07-05T12:57:47.325Z,56.14
2018-07-05T12:58:47.344Z,55.98
2018-07-05T12:59:47.372Z,54.57
2018-07-05T13:00:47.392Z,52.65
2018-07-05T13:01:47.411Z,51.82
2018-07-05T13:02:47.432Z,50.80